createdAt,value
2018-02-23T00:02:11.555Z,1.65
2018-02-23T00:04:39.846Z,1.75
2018-02-23T00:07:08.104Z,1.79
2018-02-23T00:09:36.473Z,1.78
2018-02-23T00:12:04.984Z,1.70
2018-02-23T00:14:33.278Z,1.71
2018-02-23T00:17:01.535Z,1.76
2018-02-23T00:19:29.858Z,1.81
2018-02-23T00:21:58.115Z,1.82
2018-02-23T00:24:26.419Z,1.77
2018-02-23T00:26:54.698Z,1.69
2018-02-23T00:29:22.994Z,1.72
2018-02-23T00:31:51.283Z,1.60
2018-02-23T00:34:19.547Z,1.63
2018-02-23T00:36:47.837Z,1.68
2018-02-23T00:39:16.085Z,1.65
2018-02-23T00:41:44.374Z,1.71
2018-02-23T00:44:12.644Z,1.77
2018-02-23T00:46:40.931Z,1.68
2018-02-23T00:49:09.204Z,1.53
2018-02-23T00:51:37.483Z,1.57
2018-02-23T00:54:05.744Z,1.49
2018-02-23T00:56:34.028Z,1.50
2018-02-23T00:59:02.334Z,1.56
2018-02-23T01:01:30.586Z,1.58
2018-02-23T01:03:58.873Z,1.62
2018-02-23T01:06:27.140Z,1.64
2018-02-23T01:08:55.424Z,1.65
2018-02-23T01:11:23.686Z,1.60
2018-02-23T01:13:51.986Z,1.47
2018-02-23T01:16:20.232Z,1.21
2018-02-23T01:18:48.515Z,1.53
2018-02-23T01:21:16.800Z,1.51
2018-02-23T01:23:45.046Z,1.29
2018-02-23T01:26:13.328Z,1.29
2018-02-23T01:28:41.608Z,1.34
2018-02-23T01:31:09.902Z,1.36
2018-02-23T01:33:38.171Z,1.23
2018-02-23T01:36:06.480Z,1.24
2018-02-23T01:38:34.720Z,1.41
2018-02-23T01:41:03.012Z,1.45
2018-02-23T01:43:31.259Z,1.47
2018-02-23T01:45:59.550Z,1.42
2018-02-23T01:48:27.818Z,1.45
2018-02-23T01:51:00.596Z,1.50
2018-02-23T01:53:28.872Z,1.54
2018-02-23T01:55:57.179Z,1.47
2018-02-23T01:58:25.457Z,1.41
2018-02-23T02:00:53.716Z,1.44
2018-02-23T02:03:22.016Z,1.30
2018-02-23T02:05:50.275Z,1.22
2018-02-23T02:08:18.575Z,1.22
2018-02-23T02:10:46.843Z,1.23
2018-02-23T02:13:15.137Z,1.10
2018-02-23T02:15:43.406Z,1.14
2018-02-23T02:18:11.700Z,1.23
2018-02-23T02:20:40.044Z,1.27
2018-02-23T02:23:08.316Z,1.31
2018-02-23T02:25:36.601Z,1.24
2018-02-23T02:28:05.756Z,1.27
2018-02-23T02:30:34.042Z,1.32
2018-02-23T02:33:02.333Z,1.24
2018-02-23T02:35:30.624Z,1.23
2018-02-23T02:37:58.889Z,1.23
2018-02-23T02:40:27.177Z,1.09
2018-02-23T02:42:55.425Z,0.86
2018-02-23T02:45:23.723Z,0.92
2018-02-23T02:47:52.008Z,1.01
2018-02-23T02:50:20.345Z,1.10
2018-02-23T02:52:48.591Z,1.02
2018-02-23T02:55:16.901Z,1.02
2018-02-23T02:57:45.198Z,0.92
2018-02-23T03:00:13.473Z,0.76
2018-02-23T03:02:41.757Z,0.88
2018-02-23T03:05:10.059Z,0.75
2018-02-23T03:07:38.347Z,0.70
2018-02-23T03:10:06.624Z,0.69
2018-02-23T03:12:34.906Z,0.78
2018-02-23T03:15:03.211Z,0.62
2018-02-23T03:17:31.459Z,0.71
2018-02-23T03:19:59.780Z,0.75
2018-02-23T03:22:28.095Z,0.73
2018-02-23T03:24:56.399Z,0.76
2018-02-23T03:27:24.661Z,0.86
2018-02-23T03:29:52.940Z,0.93
2018-02-23T03:32:21.191Z,0.94
2018-02-23T03:34:49.468Z,0.90
2018-02-23T03:37:17.730Z,0.92
2018-02-23T03:39:46.020Z,1.00
2018-02-23T03:42:14.271Z,0.99
2018-02-23T03:44:42.640Z,1.03
2018-02-23T03:47:10.921Z,1.07
2018-02-23T03:49:39.207Z,1.05
2018-02-23T03:52:07.481Z,0.96
2018-02-23T03:54:35.761Z,0.97
2018-02-23T03:57:04.917Z,0.90
2018-02-23T03:59:33.184Z,0.91
2018-02-23T04:02:01.487Z,0.82
2018-02-23T04:04:29.760Z,0.87
2018-02-23T04:06:58.044Z,0.80
2018-02-23T04:09:26.335Z,0.82
2018-02-23T04:11:54.647Z,0.68
2018-02-23T04:14:22.935Z,0.69
2018-02-23T04:16:51.216Z,0.67
2018-02-23T04:19:19.533Z,0.67
2018-02-23T04:21:47.810Z,0.70
2018-02-23T04:24:16.107Z,0.64
2018-02-23T04:26:44.362Z,0.63
2018-02-23T04:29:12.654Z,0.74
2018-02-23T04:31:40.911Z,0.86
2018-02-23T04:34:09.218Z,0.83
2018-02-23T04:36:37.476Z,0.85
2018-02-23T04:39:05.769Z,0.74
2018-02-23T04:41:34.065Z,0.76
2018-02-23T04:44:02.330Z,0.47
2018-02-23T04:46:30.599Z,0.48
2018-02-23T04:48:58.848Z,0.57
2018-02-23T04:51:27.189Z,0.61
2018-02-23T04:53:55.458Z,0.54
2018-02-23T04:56:23.776Z,0.48
2018-02-23T04:58:52.059Z,0.52
2018-02-23T05:01:20.347Z,0.44
2018-02-23T05:03:48.596Z,0.56
2018-02-23T05:06:16.924Z,0.57
2018-02-23T05:08:45.205Z,0.56
2018-02-23T05:11:13.525Z,0.59
2018-02-23T05:13:41.772Z,0.54
2018-02-23T05:16:10.103Z,0.46
2018-02-23T05:18:38.359Z,0.47
2018-02-23T05:21:06.627Z,0.60
2018-02-23T05:23:34.971Z,0.46
2018-02-23T05:26:03.252Z,0.38
2018-02-23T05:28:31.573Z,0.46
2018-02-23T05:30:59.840Z,0.48
2018-02-23T05:33:28.116Z,0.41
2018-02-23T05:35:56.390Z,0.34
2018-02-23T05:38:24.670Z,0.26
2018-02-23T05:40:52.949Z,0.07
2018-02-23T05:43:21.238Z,0.15
2018-02-23T05:45:49.521Z,0.32
2018-02-23T05:48:17.864Z,0.33
2018-02-23T05:50:46.130Z,0.38
2018-02-23T05:53:14.422Z,0.20
2018-02-23T05:55:42.711Z,0.16
2018-02-23T05:58:11.007Z,0.14
2018-02-23T06:00:39.301Z,0.14
2018-02-23T06:03:07.566Z,-0.12
2018-02-23T06:05:35.924Z,-0.11
2018-02-23T06:08:04.183Z,-0.01
2018-02-23T06:10:32.512Z,-0.09
2018-02-23T06:13:00.807Z,0.00
2018-02-23T06:15:34.696Z,-0.30
2018-02-23T06:18:07.706Z,-0.26
2018-02-23T06:20:36.035Z,-0.19
2018-02-23T06:23:05.111Z,-0.04
2018-02-23T06:25:33.428Z,-0.30
2018-02-23T06:28:01.688Z,-0.39
2018-02-23T06:30:30.012Z,-0.39
2018-02-23T06:32:58.356Z,-0.24
2018-02-23T06:35:26.682Z,-0.28
2018-02-23T06:37:55.072Z,-0.23
2018-02-23T06:40:24.247Z,-0.23
2018-02-23T06:42:52.551Z,-0.16
2018-02-23T06:45:20.808Z,-0.26
2018-02-23T06:47:49.125Z,-0.42
2018-02-23T06:50:17.434Z,-0.36
2018-02-23T06:52:45.868Z,-0.44
2018-02-23T06:55:14.148Z,-0.39
2018-02-23T06:57:42.576Z,-0.26
2018-02-23T07:00:10.843Z,-0.15
2018-02-23T07:02:39.264Z,-0.14
2018-02-23T07:05:07.549Z,-0.02
2018-02-23T07:07:35.819Z,-0.06
2018-02-23T07:10:04.132Z,-0.10
2018-02-23T07:12:32.421Z,0.01
2018-02-23T07:15:00.763Z,0.12
2018-02-23T07:17:29.024Z,0.12
2018-02-23T07:19:57.370Z,0.07
2018-02-23T07:22:25.664Z,0.14
2018-02-23T07:24:53.997Z,0.20
2018-02-23T07:27:22.239Z,0.10
2018-02-23T07:29:50.524Z,0.17
2018-02-23T07:32:18.833Z,0.19
2018-02-23T07:34:47.185Z,-0.14
2018-02-23T07:37:15.502Z,-0.05
2018-02-23T07:39:43.851Z,0.13
2018-02-23T07:42:12.181Z,0.23
2018-02-23T07:44:40.446Z,0.32
2018-02-23T07:47:08.807Z,0.30
2018-02-23T07:49:37.074Z,0.07
2018-02-23T07:52:05.383Z,0.16
2018-02-23T07:54:33.687Z,0.24
2018-02-23T07:57:01.993Z,0.43
2018-02-23T07:59:30.256Z,0.45
2018-02-23T08:01:58.560Z,0.38
2018-02-23T08:04:26.809Z,0.41
2018-02-23T08:06:55.114Z,0.61
2018-02-23T08:09:23.474Z,0.47
2018-02-23T08:11:51.999Z,0.50
2018-02-23T08:14:20.281Z,0.62
2018-02-23T08:16:48.577Z,0.70
2018-02-23T08:19:17.574Z,0.81
2018-02-23T08:21:45.899Z,1.00
2018-02-23T08:24:14.339Z,1.07
2018-02-23T08:26:42.624Z,1.02
2018-02-23T08:29:11.099Z,1.01
2018-02-23T08:31:39.513Z,0.98
2018-02-23T08:34:07.845Z,0.92
2018-02-23T08:36:36.115Z,1.15
2018-02-23T08:39:04.401Z,1.24
2018-02-23T08:41:33.422Z,1.29
2018-02-23T08:44:01.744Z,1.30
2018-02-23T08:46:29.991Z,1.28
2018-02-23T08:48:58.287Z,1.32
2018-02-23T08:51:26.560Z,1.40
2018-02-23T08:53:54.848Z,1.34
2018-02-23T08:56:23.150Z,1.23
2018-02-23T08:58:52.412Z,1.41
2018-02-23T09:01:20.768Z,1.49
2018-02-23T09:03:49.020Z,1.34
2018-02-23T09:06:17.354Z,1.29
2018-02-23T09:08:45.636Z,1.07
2018-02-23T09:11:13.931Z,1.38
2018-02-23T09:13:42.223Z,1.71
2018-02-23T09:16:10.585Z,1.66
2018-02-23T09:18:38.828Z,1.54
2018-02-23T09:21:07.131Z,1.65
2018-02-23T09:23:35.404Z,1.74
2018-02-23T09:26:03.697Z,1.79
2018-02-23T09:28:31.959Z,1.91
2018-02-23T09:31:00.274Z,1.93
2018-02-23T09:33:40.371Z,1.79
2018-02-23T09:36:08.659Z,1.58
2018-02-23T09:38:36.922Z,1.76
2018-02-23T09:41:06.484Z,2.06
2018-02-23T09:43:34.830Z,2.06
2018-02-23T09:46:03.100Z,2.20
2018-02-23T09:48:31.424Z,2.16
2018-02-23T09:50:59.997Z,2.15
2018-02-23T09:53:28.364Z,2.23
2018-02-23T09:55:56.624Z,2.27
2018-02-23T09:58:24.967Z,2.24
2018-02-23T10:00:53.219Z,2.11
2018-02-23T10:03:21.534Z,2.32
2018-02-23T10:05:49.809Z,2.56
2018-02-23T10:08:18.948Z,2.71
2018-02-23T10:10:47.364Z,2.52
2018-02-23T10:13:15.643Z,2.31
2018-02-23T10:15:43.992Z,2.46
2018-02-23T10:18:12.506Z,2.56
2018-02-23T10:20:40.739Z,2.52
2018-02-23T10:23:09.071Z,2.53
2018-02-23T10:25:37.320Z,2.58
2018-02-23T10:28:05.636Z,2.57
2018-02-23T10:30:35.732Z,2.67
2018-02-23T10:33:04.515Z,2.64
2018-02-23T10:35:32.833Z,2.71
2018-02-23T10:38:01.146Z,2.67
2018-02-23T10:40:29.399Z,2.64
2018-02-23T10:42:57.731Z,2.91
2018-02-23T10:45:26.041Z,3.02
2018-02-23T10:47:54.384Z,2.66
2018-02-23T10:50:22.725Z,2.94
2018-02-23T10:52:51.076Z,2.91
2018-02-23T10:55:19.357Z,3.09
2018-02-23T10:57:47.770Z,3.22
2018-02-23T11:00:16.101Z,3.22
2018-02-23T11:02:44.410Z,3.23
2018-02-23T11:05:12.687Z,2.91
2018-02-23T11:07:41.029Z,2.88
2018-02-23T11:10:09.265Z,2.61
2018-02-23T11:12:37.569Z,2.36
2018-02-23T11:15:05.880Z,2.54
2018-02-23T11:17:34.222Z,2.93
2018-02-23T11:20:02.847Z,3.16
2018-02-23T11:22:31.175Z,3.40
2018-02-23T11:24:59.463Z,3.46
2018-02-23T11:27:28.142Z,3.50
2018-02-23T11:29:56.435Z,3.76
2018-02-23T11:32:24.761Z,3.70
2018-02-23T11:34:53.049Z,3.89
2018-02-23T11:37:22.355Z,3.97
2018-02-23T11:39:50.684Z,3.75
2018-02-23T11:42:19.738Z,4.05
2018-02-23T11:44:48.058Z,4.10
2018-02-23T11:47:16.315Z,3.97
2018-02-23T11:49:44.623Z,3.94
2018-02-23T11:52:12.974Z,4.21
2018-02-23T11:54:41.899Z,4.09
2018-02-23T11:57:10.179Z,3.95
2018-02-23T11:59:38.544Z,3.97
2018-02-23T12:02:06.868Z,3.44
2018-02-23T12:04:35.261Z,3.60
2018-02-23T12:07:03.550Z,3.83
2018-02-23T12:09:31.968Z,3.64
2018-02-23T12:12:00.364Z,3.79
2018-02-23T12:14:28.728Z,4.37
2018-02-23T12:16:57.118Z,4.67
2018-02-23T12:19:25.441Z,4.61
2018-02-23T12:21:53.733Z,4.58
2018-02-23T12:24:22.042Z,4.59
2018-02-23T12:26:50.384Z,4.79
2018-02-23T12:29:18.651Z,5.11
2018-02-23T12:31:46.953Z,5.24
2018-02-23T12:34:15.217Z,5.02
2018-02-23T12:36:43.520Z,5.13
2018-02-23T12:39:11.804Z,4.98
2018-02-23T12:41:40.108Z,4.78
2018-02-23T12:44:08.436Z,4.85
2018-02-23T12:46:36.759Z,5.12
2018-02-23T12:49:05.121Z,5.28
2018-02-23T12:51:33.552Z,5.27
2018-02-23T12:54:01.840Z,5.15
2018-02-23T12:56:30.114Z,5.41
2018-02-23T12:58:58.472Z,5.48
2018-02-23T13:01:26.838Z,5.28
2018-02-23T13:03:55.139Z,5.53
2018-02-23T13:06:23.649Z,5.59
2018-02-23T13:08:51.922Z,5.76
2018-02-23T13:11:21.044Z,5.71
2018-02-23T13:13:54.996Z,5.61
2018-02-23T13:16:29.239Z,5.74
2018-02-23T13:18:57.571Z,5.66
2018-02-23T13:21:25.878Z,5.70
2018-02-23T13:23:54.153Z,5.62
2018-02-23T13:26:23.179Z,5.65
2018-02-23T13:28:51.504Z,5.81
2018-02-23T13:31:19.795Z,5.59
2018-02-23T13:33:48.092Z,6.06
2018-02-23T13:36:16.423Z,5.75
2018-02-23T13:38:44.847Z,6.19
2018-02-23T13:41:19.541Z,6.56
2018-02-23T13:43:48.623Z,6.11
2018-02-23T13:46:16.947Z,6.24
2018-02-23T13:48:45.203Z,6.29
2018-02-23T13:51:13.526Z,6.72
2018-02-23T13:53:45.558Z,7.06
2018-02-23T13:56:13.856Z,7.34
2018-02-23T13:58:42.134Z,7.23
2018-02-23T14:01:10.412Z,7.14
2018-02-23T14:03:38.835Z,7.30
2018-02-23T14:06:07.132Z,7.60
2018-02-23T14:08:35.456Z,7.82
2018-02-23T14:11:03.830Z,7.80
2018-02-23T14:13:32.140Z,7.69
2018-02-23T14:16:00.449Z,7.89
2018-02-23T14:18:28.768Z,8.12
2018-02-23T14:20:57.031Z,8.10
2018-02-23T14:23:25.374Z,8.02
2018-02-23T14:25:53.641Z,7.83
2018-02-23T14:28:22.247Z,8.14
2018-02-23T14:30:50.516Z,7.59
2018-02-23T14:33:18.840Z,7.66
2018-02-23T14:35:47.165Z,7.61
2018-02-23T14:38:15.462Z,7.69
2018-02-23T14:40:43.767Z,8.11
2018-02-23T14:43:12.073Z,8.37
2018-02-23T14:45:40.400Z,8.06
2018-02-23T14:48:08.679Z,7.68
2018-02-23T14:50:48.926Z,7.36
2018-02-23T14:53:17.184Z,7.07
2018-02-23T14:55:45.504Z,6.81
2018-02-23T14:58:13.787Z,6.64
2018-02-23T15:00:42.141Z,6.53
2018-02-23T15:03:10.411Z,6.29
2018-02-23T15:05:38.701Z,6.18
2018-02-23T15:08:06.992Z,6.08
2018-02-23T15:10:35.288Z,6.24
2018-02-23T15:13:04.452Z,6.15
2018-02-23T15:15:32.732Z,6.26
2018-02-23T15:18:02.597Z,6.25
2018-02-23T15:20:30.874Z,6.11
2018-02-23T15:22:59.164Z,5.36
2018-02-23T15:25:27.437Z,6.05
2018-02-23T15:27:56.528Z,5.83
2018-02-23T15:30:37.519Z,5.71
2018-02-23T15:33:05.835Z,5.71
2018-02-23T15:35:34.167Z,5.49
2018-02-23T15:38:03.485Z,5.43
2018-02-23T15:40:31.761Z,5.63
2018-02-23T15:43:00.876Z,5.38
2018-02-23T15:45:29.226Z,5.26
2018-02-23T15:47:59.957Z,5.46
2018-02-23T15:50:28.789Z,5.59
2018-02-23T15:52:57.039Z,5.59
2018-02-23T15:55:26.888Z,5.39
2018-02-23T15:58:01.658Z,5.41
2018-02-23T16:00:29.951Z,5.47
2018-02-23T16:02:58.318Z,5.33
2018-02-23T16:05:26.612Z,5.47
2018-02-23T16:07:54.991Z,5.48
2018-02-23T16:10:23.298Z,5.29
2018-02-23T16:12:51.560Z,5.32
2018-02-23T16:15:19.868Z,5.15
2018-02-23T16:17:48.167Z,5.32
2018-02-23T16:20:16.465Z,5.04
2018-02-23T16:22:44.938Z,5.06
2018-02-23T16:25:13.330Z,4.98
2018-02-23T16:27:41.620Z,5.03
2018-02-23T16:30:09.936Z,5.10
2018-02-23T16:32:38.229Z,4.99
2018-02-23T16:35:06.523Z,4.99
2018-02-23T16:37:34.847Z,4.99
2018-02-23T16:40:03.142Z,5.21
2018-02-23T16:42:31.450Z,5.26
2018-02-23T16:44:59.773Z,5.31
2018-02-23T16:47:28.121Z,5.11
2018-02-23T16:49:56.358Z,5.18
2018-02-23T16:52:24.648Z,5.25
2018-02-23T16:54:53.027Z,5.31
2018-02-23T16:57:21.357Z,5.16
2018-02-23T16:59:49.652Z,5.19
2018-02-23T17:02:17.985Z,5.04
2018-02-23T17:04:46.377Z,5.10
2018-02-23T17:07:14.699Z,4.98
2018-02-23T17:09:43.809Z,4.85
2018-02-23T17:12:12.095Z,4.78
2018-02-23T17:14:40.415Z,4.69
2018-02-23T17:17:08.713Z,4.66
2018-02-23T17:19:37.636Z,4.60
2018-02-23T17:22:05.915Z,4.61
2018-02-23T17:24:34.259Z,4.71
2018-02-23T17:27:02.680Z,4.41
2018-02-23T17:29:30.959Z,4.34
2018-02-23T17:31:59.276Z,4.44
2018-02-23T17:34:27.623Z,4.50
2018-02-23T17:36:56.233Z,4.39
2018-02-23T17:39:25.439Z,4.24
2018-02-23T17:41:53.725Z,4.35
2018-02-23T17:44:22.414Z,4.32
2018-02-23T17:46:50.632Z,4.34
2018-02-23T17:49:19.089Z,4.33
2018-02-23T17:51:47.486Z,4.30
2018-02-23T17:54:15.761Z,4.28
2018-02-23T17:56:44.079Z,4.17
2018-02-23T17:59:12.406Z,4.17
2018-02-23T18:01:40.705Z,4.24
2018-02-23T18:04:09.044Z,4.30
2018-02-23T18:06:38.703Z,4.14
2018-02-23T18:09:07.008Z,4.17
2018-02-23T18:11:35.321Z,4.15
2018-02-23T18:14:03.647Z,4.15
2018-02-23T18:16:31.950Z,4.01
2018-02-23T18:19:00.326Z,3.99
2018-02-23T18:21:28.567Z,4.22
2018-02-23T18:23:57.037Z,4.10
2018-02-23T18:26:25.305Z,4.04
2018-02-23T18:28:53.602Z,3.97
2018-02-23T18:31:21.945Z,3.89
2018-02-23T18:33:50.245Z,3.73
2018-02-23T18:36:18.624Z,3.75
2018-02-23T18:38:46.996Z,3.82
2018-02-23T18:41:15.273Z,3.68
2018-02-23T18:43:43.555Z,3.61
2018-02-23T18:46:11.854Z,3.62
2018-02-23T18:48:40.119Z,3.63
2018-02-23T18:51:08.427Z,3.64
2018-02-23T18:53:36.769Z,3.59
2018-02-23T18:56:05.068Z,3.61
2018-02-23T18:58:33.399Z,3.52
2018-02-23T19:01:01.671Z,3.54
2018-02-23T19:03:29.981Z,3.63
2018-02-23T19:05:58.267Z,3.67
2018-02-23T19:08:26.589Z,3.51
2018-02-23T19:10:54.852Z,3.49
2018-02-23T19:13:23.286Z,3.33
2018-02-23T19:15:51.578Z,3.60
2018-02-23T19:18:19.860Z,3.67
2018-02-23T19:20:48.132Z,3.81
2018-02-23T19:23:16.424Z,3.74
2018-02-23T19:25:44.689Z,3.70
2018-02-23T19:28:13.008Z,3.62
2018-02-23T19:30:41.268Z,3.60
2018-02-23T19:33:09.776Z,3.51
2018-02-23T19:35:38.103Z,3.49
2018-02-23T19:38:06.382Z,3.42
2018-02-23T19:40:34.693Z,3.48
2018-02-23T19:43:02.968Z,3.52
2018-02-23T19:45:31.310Z,3.62
2018-02-23T19:47:59.608Z,3.47
2018-02-23T19:50:27.932Z,3.49
2018-02-23T19:52:56.322Z,3.46
2018-02-23T19:55:25.300Z,3.42
2018-02-23T19:57:53.572Z,3.53
2018-02-23T20:00:21.888Z,3.64
2018-02-23T20:02:50.185Z,3.48
2018-02-23T20:05:18.463Z,3.32
2018-02-23T20:07:46.792Z,3.21
2018-02-23T20:10:15.088Z,3.15
2018-02-23T20:12:43.360Z,3.18
2018-02-23T20:15:11.692Z,3.23
2018-02-23T20:17:39.995Z,3.46
2018-02-23T20:20:08.343Z,3.44
2018-02-23T20:22:36.736Z,3.23
2018-02-23T20:25:05.644Z,2.77
2018-02-23T20:27:33.947Z,2.74
2018-02-23T20:30:02.270Z,2.68
2018-02-23T20:32:30.565Z,2.73
2018-02-23T20:34:58.832Z,2.69
2018-02-23T20:37:27.610Z,2.63
2018-02-23T20:39:55.890Z,2.74
2018-02-23T20:42:24.190Z,2.85
2018-02-23T20:44:52.497Z,2.77
2018-02-23T20:47:20.770Z,2.79
2018-02-23T20:49:49.065Z,2.89
2018-02-23T20:52:17.366Z,2.83
2018-02-23T20:54:45.656Z,2.91
2018-02-23T20:57:13.960Z,2.95
2018-02-23T20:59:42.222Z,2.82
2018-02-23T21:02:10.531Z,2.64
2018-02-23T21:04:38.851Z,2.64
2018-02-23T21:07:07.131Z,2.70
2018-02-23T21:09:35.430Z,2.71
2018-02-23T21:12:03.717Z,2.68
2018-02-23T21:14:32.012Z,2.76
2018-02-23T21:17:00.300Z,2.65
2018-02-23T21:19:28.609Z,2.62
2018-02-23T21:21:56.962Z,2.58
2018-02-23T21:24:25.293Z,2.67
2018-02-23T21:26:53.592Z,2.83
2018-02-23T21:29:21.936Z,2.88
2018-02-23T21:31:50.920Z,2.66
2018-02-23T21:34:19.201Z,2.57
2018-02-23T21:36:47.591Z,2.48
2018-02-23T21:39:15.860Z,2.51
2018-02-23T21:41:53.952Z,2.57
2018-02-23T21:44:22.836Z,2.50
2018-02-23T21:46:52.060Z,2.37
2018-02-23T21:49:20.327Z,2.33
2018-02-23T21:51:48.634Z,2.20
2018-02-23T21:54:16.989Z,2.08
2018-02-23T21:56:45.291Z,2.13
2018-02-23T21:59:14.230Z,2.12
2018-02-23T22:01:42.537Z,2.07
2018-02-23T22:04:10.811Z,1.96
2018-02-23T22:06:39.249Z,1.91
2018-02-23T22:09:07.661Z,1.81
2018-02-23T22:11:35.992Z,1.88
2018-02-23T22:14:04.463Z,1.82
2018-02-23T22:16:32.773Z,1.93
2018-02-23T22:19:01.090Z,1.82
2018-02-23T22:21:29.363Z,1.70
2018-02-23T22:23:57.719Z,1.71
2018-02-23T22:26:26.014Z,1.77
2018-02-23T22:28:54.407Z,1.65
2018-02-23T22:31:22.673Z,1.61
2018-02-23T22:33:50.996Z,1.63
2018-02-23T22:36:19.409Z,1.71
2018-02-23T22:38:47.708Z,1.61
2018-02-23T22:41:15.989Z,1.61
2018-02-23T22:43:44.337Z,1.38
2018-02-23T22:46:12.617Z,1.36
2018-02-23T22:48:40.889Z,1.37
2018-02-23T22:51:09.226Z,1.50
2018-02-23T22:53:37.499Z,1.58
2018-02-23T22:56:05.819Z,1.66
2018-02-23T22:58:34.101Z,1.82
2018-02-23T23:01:02.417Z,1.68
2018-02-23T23:03:30.698Z,1.62
2018-02-23T23:06:03.698Z,1.56
2018-02-23T23:08:33.356Z,1.77
2018-02-23T23:11:01.674Z,1.86
2018-02-23T23:13:30.348Z,1.87
2018-02-23T23:15:58.696Z,1.70
2018-02-23T23:18:26.982Z,1.68
2018-02-23T23:20:55.283Z,1.32
2018-02-23T23:23:23.595Z,1.34
2018-02-23T23:25:51.879Z,1.39
2018-02-23T23:28:20.220Z,1.42
2018-02-23T23:30:48.550Z,1.15
2018-02-23T23:33:17.107Z,1.10
2018-02-23T23:35:45.410Z,1.25
2018-02-23T23:38:13.755Z,1.17
2018-02-23T23:40:42.070Z,1.18
2018-02-23T23:43:10.355Z,1.08
2018-02-23T23:45:38.704Z,1.10
2018-02-23T23:48:07.179Z,1.14
2018-02-23T23:50:35.460Z,1.06
2018-02-23T23:53:03.759Z,0.99
2018-02-23T23:55:32.047Z,1.03
2018-02-23T23:58:00.337Z,1.02
